Rico, CO

4:33 AM MDT on November 01, 2014 (GMT -0600)
RAWS BIG BEAR PARK CO US | Change Station
CLOSE
Current Station
Personal Weather Station
Location: Durango, CO
Elevation: 10340 ft
Nearby Weather Stations
Active Advisory: Winter Storm Watch

Elev 10340 ft 37.50 °N, 107.73 °W | Updated 38 minutes ago

Partly Cloudy
Partly Cloudy
36 °F
Feels Like 30 °F
N
7
Wind Variable Wind from ESE
Gusts 21.0 mph

Today
High -- | Low -- °F
--% Chance of Precip.
Yesterday
High -- | Low -- °F
Precip. -- in
7:37 AM 6:13 PM
Waxing Gibbous, 65% visible
Pressure 30.22 in
Visibility 10.0 miles
Clouds Clear
Windchill 30 °F
Dew Point 34 °F
Humidity 91%
Rainfall 0.18 in
Snow Depth Not available.
UV 0 out of 12
Pollen 2.40 out of 12
Air Quality Not available.
Flu Activity Not available.
METAR KTEX 011015Z AUTO 15010G24KT 110V200 10SM VCTS CLR 09/01 A3022 RMK AO2 T00860010

More Conditions Fewer Conditions

Pressure 30.22 in
Visibility 10.0 miles
Clouds Clear
Windchill 30 °F
Dew Point 34 °F
Humidity 91%
Rainfall 0.18 in
Snow Depth Not available.
UV 0 out of 12
Pollen 2.40 out of 12
Air Quality Not available.
Flu Activity Not available.
METAR KTEX 011015Z AUTO 15010G24KT 110V200 10SM VCTS CLR 09/01 A3022 RMK AO2 T00860010

More Conditions Fewer Conditions

10-Day Weather Forecast

Almanac

Astronomy

Nov. 01, 2014 Rise Set
Actual Time
Civil Twilight
Nautical Twilight
Astronomical Twilight
Moon
Length of Visible Light
Length of Day
Tomorrow will be .
, % of the Moon is Illuminated

Today's Extremes

State Highs State Lows

Community

WunderPhotos

Upload Photos

1,766,874 photos uploaded!

WunderBlogs® & News

Nearby

Air Quality

  Air Quality AQ Index Pollutant
Not available.

Snow Depth

Station Depth Elevation

Earthquake Activity

City Distance Mag. Time & Date
Minimum magnitude displayed is 2.5.

Coastal Water Temperatures

Place Temperature

Nearby Weather Stations